Time;durP1;ratioP1;P1;durP2;ratioP2;P2;SDS_P1;SDS_P2;PMS_P1;PMS_P2;Temp;Humidity;BMP_temperature;BMP_pressure;BME280_temperature;BME280_humidity;BME280_pressure;Samples;Min_cycle;Max_cycle;Signal;HPM_P1;HPM_P2
2021/12/23 00:02:30;;;;;;;29.43;16.83;;;;;;;-8.05;85.32;98349.88;6104653;28;20318;-86
2021/12/23 00:05:33;;;;;;;27.93;16.73;;;;;;;-8.06;84.26;98347.31;6099405;28;20245;-88
2021/12/23 00:08:35;;;;;;;27.37;15.67;;;;;;;-8.08;84.75;98349.00;6108617;28;20755;-86
2021/12/23 00:11:39;;;;;;;26.80;16.70;;;;;;;-8.10;84.42;98343.91;6107929;28;20240;-85
2021/12/23 00:14:41;;;;;;;33.87;16.30;;;;;;;-8.13;84.71;98341.34;6085072;29;20638;-87
2021/12/23 00:24:30;;;;;;;26.53;16.27;;;;;;;-8.15;85.67;98317.41;6110460;28;20248;-85
2021/12/23 00:27:32;;;;;;;26.97;16.13;;;;;;;-8.18;84.74;98317.41;6108090;28;20233;-87
2021/12/23 00:30:34;;;;;;;29.30;16.00;;;;;;;-8.17;85.32;98324.22;6108181;28;20261;-85
2021/12/23 00:33:39;;;;;;;27.63;15.93;;;;;;;-8.21;84.73;98318.28;6123395;28;20717;-87
2021/12/23 00:36:45;;;;;;;26.87;16.77;;;;;;;-8.21;85.39;98302.91;6109005;28;20232;-86
2021/12/23 00:39:47;;;;;;;26.70;14.97;;;;;;;-8.21;84.33;98318.28;6103502;28;20234;-87
2021/12/23 00:42:49;;;;;;;23.33;15.17;;;;;;;-8.23;84.79;98312.28;6085826;29;20793;-86
2021/12/23 00:45:51;;;;;;;26.17;15.97;;;;;;;-8.22;85.25;98313.13;6107423;28;20227;-86
2021/12/23 00:48:53;;;;;;;27.17;15.93;;;;;;;-8.20;85.13;98301.22;6089572;29;20235;-86
2021/12/23 00:51:57;;;;;;;27.27;16.07;;;;;;;-8.22;85.00;98303.75;6119283;28;20721;-86
2021/12/23 00:55:00;;;;;;;27.17;15.77;;;;;;;-8.23;85.16;98307.16;6108725;28;20258;-87
2021/12/23 00:58:03;;;;;;;27.73;15.13;;;;;;;-8.24;84.59;98305.44;6108871;28;20235;-85
2021/12/23 01:01:05;;;;;;;24.73;14.43;;;;;;;-8.25;84.50;98303.75;6106975;28;20247;-87
2021/12/23 01:04:08;;;;;;;25.97;14.57;;;;;;;-8.25;84.60;98308.00;6119526;28;20606;-86
2021/12/23 01:07:10;;;;;;;27.50;15.43;;;;;;;-8.24;84.74;98302.03;6104219;29;20223;-85
2021/12/23 01:10:12;;;;;;;24.50;15.37;;;;;;;-8.23;84.28;98296.91;6106553;28;20722;-86
2021/12/23 01:13:17;;;;;;;25.20;13.73;;;;;;;-8.22;84.76;98296.06;6100338;29;20248;-86
2021/12/23 01:16:36;;;;;;;25.70;14.53;;;;;;;-8.22;84.86;98295.22;6106517;28;20656;-86
2021/12/23 01:19:40;;;;;;;28.63;16.07;;;;;;;-8.23;84.77;98294.38;6107721;28;20716;-87
2021/12/23 01:22:42;;;;;;;24.30;14.77;;;;;;;-8.22;85.15;98280.72;6123948;28;20230;-86
2021/12/23 01:25:44;;;;;;;26.33;15.60;;;;;;;-8.20;84.45;98280.72;6107286;28;20385;-86
2021/12/23 01:28:50;;;;;;;27.13;15.23;;;;;;;-8.20;84.16;98281.59;6108398;28;20235;-86
2021/12/23 01:31:52;;;;;;;28.83;14.73;;;;;;;-8.22;84.32;98283.28;6107992;28;20808;-88
2021/12/23 01:34:54;;;;;;;25.93;13.67;;;;;;;-8.23;84.07;98280.72;6117581;28;20927;-86
2021/12/23 01:37:56;;;;;;;27.93;16.17;;;;;;;-8.25;84.51;98280.69;6107315;28;20249;-87
2021/12/23 01:40:59;;;;;;;24.27;14.57;;;;;;;-8.27;84.30;98268.75;6107480;28;20671;-86
2021/12/23 01:44:01;;;;;;;29.03;15.93;;;;;;;-8.26;84.99;98260.22;6107733;28;20233;-86
2021/12/23 01:47:03;;;;;;;26.73;14.53;;;;;;;-8.29;84.92;98255.09;6107907;28;20321;-86
2021/12/23 01:50:07;;;;;;;25.40;15.10;;;;;;;-8.28;84.66;98247.41;6124289;28;20250;-86
2021/12/23 01:53:10;;;;;;;25.47;14.63;;;;;;;-8.27;84.94;98255.94;6127534;28;20241;-87
2021/12/23 01:56:12;;;;;;;25.93;14.83;;;;;;;-8.29;84.13;98250.84;6102313;29;20524;-87
2021/12/23 01:59:15;;;;;;;22.10;14.17;;;;;;;-8.30;84.95;98251.69;6110207;28;20257;-88
2021/12/23 02:02:17;;;;;;;29.20;15.87;;;;;;;-8.33;84.34;98251.69;6108740;28;20322;-86
2021/12/23 02:05:21;;;;;;;25.73;14.60;;;;;;;-8.34;84.33;98249.13;6072490;29;20231;-86
2021/12/23 02:08:22;;;;;;;24.37;14.53;;;;;;;-8.35;85.03;98245.72;6112073;28;20578;-85
2021/12/23 02:11:24;;;;;;;25.53;14.53;;;;;;;-8.35;84.47;98250.84;6126857;28;20589;-86
2021/12/23 02:14:27;;;;;;;24.40;14.83;;;;;;;-8.37;84.25;98244.84;6092702;29;20774;-85
2021/12/23 02:17:33;;;;;;;23.70;14.57;;;;;;;-8.39;84.76;98240.59;6088008;29;20733;-86
2021/12/23 02:20:36;;;;;;;25.37;14.03;;;;;;;-8.43;85.26;98231.19;6099258;28;20724;-86
2021/12/23 02:23:38;;;;;;;27.27;14.80;;;;;;;-8.47;85.37;98224.34;6110978;28;20312;-86
2021/12/23 02:26:41;;;;;;;22.93;13.93;;;;;;;-8.49;84.69;98220.94;6127361;28;20254;-87
2021/12/23 02:29:43;;;;;;;25.13;15.37;;;;;;;-8.55;84.77;98228.59;6111437;28;20226;-86
2021/12/23 02:32:46;;;;;;;25.00;14.63;;;;;;;-8.58;84.35;98224.31;6108358;28;20371;-86
2021/12/23 02:35:49;;;;;;;22.63;14.07;;;;;;;-8.60;84.41;98218.34;6107886;28;20243;-86
2021/12/23 02:38:51;;;;;;;24.77;13.33;;;;;;;-8.65;84.67;98217.47;6122760;28;20240;-86
2021/12/23 02:41:54;;;;;;;24.77;13.73;;;;;;;-8.69;84.48;98214.06;6111454;28;20235;-86
2021/12/23 02:44:58;;;;;;;25.87;15.00;;;;;;;-8.70;85.21;98193.59;6110654;28;20246;-86
2021/12/23 02:48:01;;;;;;;23.53;13.77;;;;;;;-8.74;84.81;98192.72;6111340;28;20239;-87
2021/12/23 02:51:07;;;;;;;25.70;14.30;;;;;;;-8.76;85.13;98199.53;6126279;28;20266;-86
2021/12/23 02:54:09;;;;;;;20.10;13.40;;;;;;;-8.77;84.28;98209.72;6115583;28;20714;-86
2021/12/23 02:57:11;;;;;;;23.60;14.57;;;;;;;-8.83;84.87;98202.91;6134142;28;20203;-85
2021/12/23 03:00:14;;;;;;;29.37;14.73;;;;;;;-8.84;84.53;98201.19;6133279;28;20683;-87
2021/12/23 03:03:16;;;;;;;25.93;15.80;;;;;;;-8.85;84.87;98201.19;6095608;28;20219;-87
2021/12/23 03:06:19;;;;;;;26.27;14.13;;;;;;;-8.86;84.24;98207.16;6115385;28;20234;-86
2021/12/23 03:09:22;;;;;;;24.93;13.70;;;;;;;-8.88;84.51;98198.63;6095082;29;20232;-86
2021/12/23 03:12:24;;;;;;;26.73;14.87;;;;;;;-8.93;84.12;98197.75;6102479;29;20231;-85
2021/12/23 03:15:26;;;;;;;24.67;13.47;;;;;;;-8.96;85.07;98190.91;6095591;28;20314;-85
2021/12/23 03:18:28;;;;;;;30.00;15.23;;;;;;;-9.00;83.85;98184.94;6108666;28;20227;-85
2021/12/23 03:21:30;;;;;;;26.10;14.40;;;;;;;-9.04;83.67;98179.78;6114158;28;20234;-86
2021/12/23 03:24:32;;;;;;;20.73;13.20;;;;;;;-9.07;84.98;98165.28;6094844;28;20246;-86
2021/12/23 03:27:34;;;;;;;29.57;15.33;;;;;;;-9.11;84.20;98166.16;6112266;28;20298;-86
2021/12/23 03:30:37;;;;;;;25.53;14.73;;;;;;;-9.14;84.31;98165.25;6125003;28;20226;-86
2021/12/23 03:33:39;;;;;;;27.03;14.67;;;;;;;-9.15;84.57;98166.97;6116223;28;20237;-85
2021/12/23 03:36:42;;;;;;;24.10;15.10;;;;;;;-9.15;84.80;98169.53;6116685;28;20235;-86
2021/12/23 03:39:44;;;;;;;29.07;15.93;;;;;;;-9.16;84.32;98162.69;6110385;28;20652;-85
2021/12/23 03:42:46;;;;;;;25.50;14.33;;;;;;;-9.15;84.80;98159.28;6109565;28;20756;-88
2021/12/23 03:45:49;;;;;;;27.50;14.50;;;;;;;-9.16;83.86;98165.25;6108792;28;20245;-86
2021/12/23 03:48:51;;;;;;;27.33;15.40;;;;;;;-9.16;84.55;98169.50;6109468;28;20292;-86
2021/12/23 03:51:53;;;;;;;24.17;13.83;;;;;;;-9.16;83.93;98160.13;6109560;28;20700;-89
2021/12/23 03:54:55;;;;;;;24.93;14.33;;;;;;;-9.13;83.86;98157.59;6108752;28;20228;-86
2021/12/23 03:57:57;;;;;;;26.03;15.63;;;;;;;-9.10;83.47;98157.63;6090304;29;20231;-86
2021/12/23 04:00:59;;;;;;;24.63;15.03;;;;;;;-9.10;83.55;98165.31;6118273;28;20245;-86
2021/12/23 04:04:02;;;;;;;28.97;16.93;;;;;;;-9.09;83.47;98158.50;6104038;28;20234;-86
2021/12/23 04:07:05;;;;;;;25.60;13.77;;;;;;;-9.06;83.89;98161.88;6110965;28;20232;-85
2021/12/23 04:10:08;;;;;;;25.37;15.33;;;;;;;-9.03;84.16;98172.13;6101711;29;20235;-87
2021/12/23 04:13:10;;;;;;;26.23;14.77;;;;;;;-8.99;83.58;98152.56;6073032;28;20613;-86
2021/12/23 04:16:12;;;;;;;27.53;15.70;;;;;;;-8.97;83.59;98158.50;6108816;28;20314;-86
2021/12/23 04:19:14;;;;;;;28.57;16.23;;;;;;;-8.96;84.29;98150.00;6109729;28;20248;-87
2021/12/23 04:22:17;;;;;;;28.00;15.73;;;;;;;-8.92;84.16;98140.66;6123878;28;20707;-86
2021/12/23 04:25:21;;;;;;;26.90;15.57;;;;;;;-8.91;84.16;98138.09;6108370;28;20732;-85
2021/12/23 04:28:25;;;;;;;27.70;15.10;;;;;;;-8.91;84.72;98134.69;6108123;28;20242;-86
2021/12/23 04:31:27;;;;;;;24.07;14.50;;;;;;;-8.94;84.14;98130.41;6109784;28;20962;-86
2021/12/23 04:34:29;;;;;;;27.27;15.30;;;;;;;-8.97;84.60;98127.84;6093016;29;20231;-86
2021/12/23 04:37:31;;;;;;;28.00;15.17;;;;;;;-8.99;83.79;98121.88;6105003;28;20281;-86
2021/12/23 04:40:35;;;;;;;26.23;15.50;;;;;;;-8.99;84.74;98127.00;6108291;28;21026;-87
2021/12/23 04:43:38;;;;;;;28.83;15.87;;;;;;;-8.99;84.37;98111.66;6108442;28;20290;-85
2021/12/23 04:46:40;;;;;;;24.03;14.03;;;;;;;-8.98;84.09;98118.47;6124236;28;20278;-85
2021/12/23 04:49:42;;;;;;;26.10;16.07;;;;;;;-9.00;84.69;98112.50;6125001;28;20346;-87
2021/12/23 04:52:45;;;;;;;27.93;15.73;;;;;;;-8.99;84.12;98111.66;6107326;28;20813;-85
2021/12/23 04:55:48;;;;;;;25.33;15.73;;;;;;;-8.99;84.13;98116.78;6094796;29;20224;-86
2021/12/23 04:58:50;;;;;;;31.10;16.60;;;;;;;-9.01;84.80;98108.25;6111156;28;20235;-85
2021/12/23 05:01:52;;;;;;;25.60;15.60;;;;;;;-9.01;84.71;98106.53;6107940;28;20235;-86
2021/12/23 05:04:54;;;;;;;28.50;16.00;;;;;;;-9.00;83.97;98108.25;6100873;28;20742;-89
2021/12/23 05:07:57;;;;;;;26.83;15.50;;;;;;;-9.01;83.73;98106.53;6108652;28;20315;-85
2021/12/23 05:10:59;;;;;;;24.43;15.00;;;;;;;-8.99;84.26;98104.84;6109777;28;20227;-85
2021/12/23 05:14:01;;;;;;;25.73;15.73;;;;;;;-8.97;83.82;98103.13;6107269;28;20235;-87
2021/12/23 05:17:03;;;;;;;28.37;16.27;;;;;;;-8.91;84.19;98102.31;6108761;28;20908;-85
2021/12/23 05:20:07;;;;;;;29.63;16.03;;;;;;;-8.88;84.27;98098.91;6107124;28;20708;-86
2021/12/23 05:23:09;;;;;;;29.43;15.27;;;;;;;-8.90;83.79;98085.28;6107454;28;20712;-86
2021/12/23 05:26:11;;;;;;;28.13;16.03;;;;;;;-8.89;84.56;98094.66;6110600;28;20234;-87
2021/12/23 05:29:14;;;;;;;27.53;15.30;;;;;;;-8.88;83.99;98096.38;6128088;28;20235;-85
2021/12/23 05:32:16;;;;;;;26.23;15.43;;;;;;;-8.89;83.97;98092.94;6111878;28;20233;-86
2021/12/23 05:35:19;;;;;;;29.27;16.03;;;;;;;-8.89;84.00;98089.53;6090357;29;20246;-86
2021/12/23 05:38:23;;;;;;;26.30;16.13;;;;;;;-8.87;83.96;98080.13;6106841;29;20277;-86
2021/12/23 05:41:27;;;;;;;26.70;16.17;;;;;;;-8.87;83.64;98088.66;6108404;28;20291;-86
2021/12/23 05:44:30;;;;;;;26.60;16.17;;;;;;;-8.83;84.00;98089.53;6111973;28;20734;-86
2021/12/23 05:47:32;;;;;;;26.53;15.57;;;;;;;-8.78;84.03;98091.25;6127431;28;20242;-86
2021/12/23 05:50:34;;;;;;;25.23;17.00;;;;;;;-8.72;84.15;98086.16;6100181;29;20240;-87
2021/12/23 05:53:36;;;;;;;31.00;16.37;;;;;;;-8.66;83.79;98082.75;6112093;28;20246;-86
2021/12/23 05:56:39;;;;;;;33.40;17.50;;;;;;;-8.61;83.94;98076.81;6127301;28;20691;-86
2021/12/23 05:59:41;;;;;;;30.60;17.53;;;;;;;-8.55;84.21;98080.22;6111522;28;20261;-86
2021/12/23 06:02:43;;;;;;;32.77;17.70;;;;;;;-8.52;84.01;98075.97;6110833;28;20709;-86
2021/12/23 06:05:45;;;;;;;30.77;17.67;;;;;;;-8.45;83.88;98064.00;6130860;28;20641;-85
2021/12/23 06:08:47;;;;;;;31.57;18.00;;;;;;;-8.39;83.53;98067.44;6124331;28;20612;-86
2021/12/23 06:11:49;;;;;;;28.30;16.50;;;;;;;-8.32;83.52;98060.63;6125777;28;20582;-86
2021/12/23 06:14:51;;;;;;;33.53;19.47;;;;;;;-8.30;83.57;98062.31;6118461;28;20266;-87
2021/12/23 06:17:53;;;;;;;31.13;18.17;;;;;;;-8.27;83.59;98079.34;6135506;28;20308;-85
2021/12/23 06:20:55;;;;;;;28.97;16.40;;;;;;;-8.25;84.25;98070.81;6071008;28;20242;-86
2021/12/23 06:23:57;;;;;;;32.37;18.60;;;;;;;-8.21;84.25;98064.84;6086899;28;20587;-86
2021/12/23 06:26:59;;;;;;;29.73;17.23;;;;;;;-8.20;83.88;98042.66;6079675;29;20244;-86
2021/12/23 06:33:36;;;;;;;33.00;18.37;;;;;;;-8.15;84.14;98053.75;6048869;29;20239;-86
2021/12/23 06:36:40;;;;;;;36.40;21.33;;;;;;;-8.10;84.29;98040.97;6099338;28;20303;-86
2021/12/23 06:39:44;;;;;;;38.43;21.43;;;;;;;-8.09;83.84;98040.97;6087274;28;20286;-85
2021/12/23 06:42:46;;;;;;;36.80;20.80;;;;;;;-8.08;83.71;98042.63;6064965;29;20240;-88
2021/12/23 06:45:48;;;;;;;31.93;19.33;;;;;;;-8.05;84.52;98034.97;6068553;29;20243;-86
2021/12/23 06:48:50;;;;;;;35.10;20.77;;;;;;;-7.98;84.00;98035.78;6071978;29;20247;-86
2021/12/23 06:51:53;;;;;;;36.07;18.63;;;;;;;-7.95;83.75;98038.34;6069125;29;20322;-86
2021/12/23 06:54:56;;;;;;;31.03;19.27;;;;;;;-7.97;83.59;98040.06;6080165;29;20239;-89
2021/12/23 06:57:58;;;;;;;32.43;19.27;;;;;;;-7.95;83.11;98043.47;6069958;28;20240;-86
2021/12/23 07:01:01;;;;;;;38.93;20.00;;;;;;;-7.95;84.09;98041.78;6086219;28;20371;-86
2021/12/23 07:04:11;;;;;;;30.80;18.80;;;;;;;-7.95;83.99;98036.66;6088130;28;20235;-86
2021/12/23 07:07:26;;;;;;;35.20;18.67;;;;;;;-7.90;83.41;98047.75;6085381;28;20251;-85
2021/12/23 07:10:29;;;;;;;31.27;18.00;;;;;;;-7.86;84.17;98028.94;6086011;28;20326;-86
2021/12/23 07:13:32;;;;;;;33.97;19.17;;;;;;;-7.79;83.28;98040.06;6068875;28;20627;-86
2021/12/23 07:16:37;;;;;;;30.50;19.13;;;;;;;-7.74;83.58;98037.47;6085446;28;20239;-86
2021/12/23 07:19:39;;;;;;;33.60;19.10;;;;;;;-7.68;83.80;98024.63;6113417;28;20352;-86
2021/12/23 07:22:41;;;;;;;31.97;18.63;;;;;;;-7.61;83.38;98023.78;6104256;29;20221;-86
2021/12/23 07:25:43;;;;;;;31.00;18.83;;;;;;;-7.56;83.77;98029.72;6131353;28;20253;-86
2021/12/23 07:28:45;;;;;;;32.47;19.00;;;;;;;-7.52;83.53;98028.84;6132274;28;20242;-86
2021/12/23 07:31:47;;;;;;;30.17;17.63;;;;;;;-7.45;83.87;98022.84;6106143;28;20343;-86
2021/12/23 07:34:50;;;;;;;34.30;19.23;;;;;;;-7.38;82.73;98029.63;6127025;28;20235;-86
2021/12/23 07:37:52;;;;;;;38.13;19.63;;;;;;;-7.30;83.26;98034.75;6136471;28;20238;-87
2021/12/23 07:40:54;;;;;;;33.90;20.13;;;;;;;-7.20;83.67;98049.25;6132340;28;20238;-86
2021/12/23 07:46:59;;;;;;;34.70;20.83;;;;;;;-7.02;83.60;98038.03;6113048;28;20229;-86
2021/12/23 07:50:03;;;;;;;41.90;22.00;;;;;;;-6.97;83.26;98029.44;6131603;28;20235;-86
2021/12/23 07:53:05;;;;;;;38.57;21.37;;;;;;;-6.91;82.71;98026.00;6093166;28;20242;-87
2021/12/23 07:56:07;;;;;;;38.07;22.43;;;;;;;-6.81;83.33;98035.34;6108339;28;20260;-87
2021/12/23 07:59:10;;;;;;;36.23;21.03;;;;;;;-6.70;83.07;98028.44;6133316;28;20230;-86
2021/12/23 08:02:12;;;;;;;37.20;20.93;;;;;;;-6.60;82.45;98029.22;6115595;28;20233;-86
2021/12/23 08:05:19;;;;;;;34.67;20.37;;;;;;;-6.47;82.67;98012.84;6123342;28;20230;-86
2021/12/23 08:08:21;;;;;;;35.70;21.30;;;;;;;-6.35;82.59;97993.09;6131732;28;20237;-86
2021/12/23 08:11:23;;;;;;;35.37;20.53;;;;;;;-6.21;82.70;98000.66;6133398;28;20317;-86
2021/12/23 08:14:26;;;;;;;33.40;21.03;;;;;;;-6.06;82.54;97999.66;6131910;28;20230;-86
2021/12/23 08:17:33;;;;;;;33.17;19.93;;;;;;;-5.93;82.46;97988.41;6116274;28;20241;-87
2021/12/23 08:20:36;;;;;;;36.53;19.90;;;;;;;-5.81;82.40;97989.97;6131987;28;20241;-86
2021/12/23 08:23:38;;;;;;;34.27;20.37;;;;;;;-5.69;82.67;98000.94;6114992;28;20226;-86
2021/12/23 08:26:42;;;;;;;34.07;20.00;;;;;;;-5.56;82.25;98004.22;6115322;29;20705;-86
2021/12/23 08:29:44;;;;;;;38.07;19.57;;;;;;;-5.44;81.85;97992.97;6131686;28;20241;-86
2021/12/23 08:32:48;;;;;;;36.33;20.67;;;;;;;-5.32;82.10;97995.38;6129250;28;20234;-86
2021/12/23 08:35:50;;;;;;;35.53;19.33;;;;;;;-5.21;82.11;97996.97;6133824;28;20265;-87
2021/12/23 08:38:52;;;;;;;33.03;20.30;;;;;;;-5.06;82.19;97989.91;6131135;28;20702;-87
2021/12/23 08:41:55;;;;;;;30.27;19.13;;;;;;;-4.91;82.57;97982.81;6112015;28;20262;-86
2021/12/23 08:44:57;;;;;;;36.03;22.00;;;;;;;-4.77;81.57;97985.19;6093074;28;20358;-88
2021/12/23 08:47:59;;;;;;;34.93;21.17;;;;;;;-4.66;81.85;97975.56;6119094;28;20244;-86
2021/12/23 08:51:02;;;;;;;32.37;20.63;;;;;;;-4.55;81.75;97967.69;6130881;28;20782;-86
2021/12/23 08:54:04;;;;;;;34.53;20.93;;;;;;;-4.45;81.89;97969.25;6114898;28;20297;-86
2021/12/23 08:57:07;;;;;;;37.80;22.50;;;;;;;-4.35;82.15;97968.22;6130990;28;20305;-86
2021/12/23 09:00:13;;;;;;;31.07;20.03;;;;;;;-4.27;81.64;97979.22;6120933;28;20289;-86
2021/12/23 09:03:15;;;;;;;35.23;20.57;;;;;;;-4.14;81.29;97975.56;6115575;28;20298;-87
2021/12/23 09:06:17;;;;;;;35.90;21.10;;;;;;;-3.99;80.73;97971.03;6133289;28;20245;-87
2021/12/23 09:09:19;;;;;;;32.77;21.17;;;;;;;-3.87;80.40;97971.66;6135209;28;20237;-86
2021/12/23 09:12:22;;;;;;;33.00;21.83;;;;;;;-3.80;80.35;97965.53;6135652;28;20221;-86
2021/12/23 09:15:24;;;;;;;33.70;21.47;;;;;;;-3.69;80.32;97949.81;6136307;28;20237;-86
2021/12/23 09:18:27;;;;;;;31.53;20.37;;;;;;;-3.57;80.37;97951.31;6134167;28;20230;-87
2021/12/23 09:21:29;;;;;;;32.73;20.13;;;;;;;-3.45;79.86;97958.81;6135576;28;20309;-87
2021/12/23 09:24:37;;;;;;;32.20;19.97;;;;;;;-3.37;79.98;97944.88;6135329;28;20231;-87
2021/12/23 09:27:57;;;;;;;30.60;20.03;;;;;;;-3.28;79.67;97935.22;6119780;28;20238;-87
2021/12/23 09:34:20;;;;;;;34.53;20.93;;;;;;;-3.16;78.88;97934.97;6130486;28;20703;-86
2021/12/23 09:37:24;;;;;;;34.83;21.00;;;;;;;-3.11;79.22;97934.00;6137128;28;20289;-87
2021/12/23 09:40:29;;;;;;;30.97;19.93;;;;;;;-3.07;78.81;97917.53;6134766;28;20587;-86
2021/12/23 09:43:33;;;;;;;29.27;19.20;;;;;;;-2.99;79.01;97917.38;6137300;28;20272;-87
2021/12/23 09:46:38;;;;;;;27.93;18.87;;;;;;;-2.98;78.91;97909.59;6119635;28;20245;-88
2021/12/23 09:49:40;;;;;;;35.07;20.40;;;;;;;-2.90;79.01;97913.75;6150785;28;20317;-87
2021/12/23 09:52:48;;;;;;;32.60;20.40;;;;;;;-2.79;78.62;97919.47;6119375;28;20234;-87
2021/12/23 09:55:51;;;;;;;30.77;19.57;;;;;;;-2.73;78.37;97909.88;6134150;28;20226;-87
2021/12/23 09:58:56;;;;;;;29.40;20.40;;;;;;;-2.67;77.90;97908.88;6119046;28;20230;-87
2021/12/23 10:01:59;;;;;;;30.57;19.80;;;;;;;-2.63;77.82;97902.75;6119181;28;20312;-87
2021/12/23 10:05:03;;;;;;;29.07;19.63;;;;;;;-2.56;78.28;97904.28;6121267;28;20230;-87
2021/12/23 10:08:06;;;;;;;32.63;20.63;;;;;;;-2.47;77.40;97901.47;6130808;28;20231;-86
2021/12/23 10:31:10;;;;;;;30.13;19.83;;;;;;;-2.29;76.95;97848.47;6133239;28;20269;-87
2021/12/23 10:37:36;;;;;;;30.07;19.80;;;;;;;-2.33;77.57;97834.81;6128837;28;20701;-88
2021/12/23 10:40:42;;;;;;;33.27;21.33;;;;;;;-2.22;77.18;97849.16;6133884;28;20265;-89
2021/12/23 10:43:53;;;;;;;30.00;19.87;;;;;;;-2.14;77.26;97831.72;6133797;28;20517;-87
2021/12/23 10:46:55;;;;;;;31.07;19.20;;;;;;;-2.05;76.84;97827.13;6125699;28;20234;-87
2021/12/23 10:50:31;;;;;;;28.27;19.93;;;;;;;-1.97;76.62;97827.75;6133797;28;20261;-87
2021/12/23 10:54:09;;;;;;;33.53;20.77;;;;;;;-1.97;76.50;97814.84;6093544;28;20231;-88
2021/12/23 11:01:00;;;;;;;32.57;20.23;;;;;;;-2.02;76.91;97805.53;6134576;28;20234;-87
2021/12/23 11:04:06;;;;;;;32.30;21.00;;;;;;;-2.02;76.91;97810.69;6131263;28;20234;-87
2021/12/23 11:07:23;;;;;;;28.77;20.53;;;;;;;-2.05;76.94;97813.34;6131388;28;20242;-87
2021/12/23 11:37:12;;;;;;;31.77;20.63;;;;;;;-1.62;76.26;97759.50;6101481;29;20236;-87
2021/12/23 11:43:48;;;;;;;31.33;21.13;;;;;;;-1.56;76.14;97733.41;6068156;29;20263;-87
2021/12/23 11:46:55;;;;;;;29.33;19.83;;;;;;;-1.54;75.73;97739.38;6128821;28;20233;-87
2021/12/23 11:49:57;;;;;;;29.60;19.40;;;;;;;-1.52;75.76;97723.81;6149612;28;20317;-87
2021/12/23 11:53:00;;;;;;;29.87;20.90;;;;;;;-1.48;76.14;97715.03;6116094;28;20715;-87
2021/12/23 11:56:06;;;;;;;29.83;20.47;;;;;;;-1.39;75.59;97717.34;6122008;28;20230;-87
2021/12/23 11:59:11;;;;;;;30.03;21.03;;;;;;;-1.26;76.02;97704.84;6104596;29;20318;-87
2021/12/23 12:02:21;;;;;;;30.33;21.50;;;;;;;-1.06;75.10;97702.44;6109903;28;20544;-87
2021/12/23 12:05:23;;;;;;;31.87;21.60;;;;;;;-0.87;74.79;97700.06;6118167;28;20710;-88
2021/12/23 12:08:26;;;;;;;31.73;19.40;;;;;;;-0.80;73.58;97694.63;6132064;28;20238;-87
2021/12/23 12:11:27;;;;;;;29.60;19.97;;;;;;;-0.84;73.09;97690.47;6135187;28;20603;-87
2021/12/23 12:14:39;;;;;;;30.67;21.00;;;;;;;-0.95;73.89;97679.63;6124622;28;20464;-87
2021/12/23 12:17:42;;;;;;;32.57;21.27;;;;;;;-0.85;74.47;97682.72;6108182;28;20238;-87
2021/12/23 12:24:13;;;;;;;28.23;20.47;;;;;;;-0.40;73.61;97675.88;6122683;28;20234;-87
2021/12/23 12:27:26;;;;;;;29.37;19.27;;;;;;;-0.10;72.55;97675.69;6116377;28;20242;-88
2021/12/23 12:30:51;;;;;;;32.00;20.80;;;;;;;0.03;71.49;97663.06;6131948;28;20361;-88
2021/12/23 12:34:06;;;;;;;28.43;20.17;;;;;;;0.07;70.90;97652.53;6120355;28;20239;-88
2021/12/23 12:37:08;;;;;;;30.23;19.13;;;;;;;0.03;71.54;97663.91;6132660;28;20230;-88
2021/12/23 12:40:11;;;;;;;28.57;18.57;;;;;;;0.06;70.77;97661.22;6131890;28;20242;-88
2021/12/23 12:43:45;;;;;;;29.23;19.07;;;;;;;0.10;71.22;97672.31;6110682;28;20262;-87
2021/12/23 12:47:05;;;;;;;29.03;19.47;;;;;;;0.07;71.41;97664.66;6116887;29;20325;-87
2021/12/23 12:50:18;;;;;;;30.33;19.90;;;;;;;0.22;71.00;97664.88;6113766;28;20239;-87
2021/12/23 12:53:21;;;;;;;28.30;19.27;;;;;;;0.27;70.14;97654.34;6091615;28;20741;-87
2021/12/23 12:56:26;;;;;;;31.63;19.47;;;;;;;0.13;69.95;97651.44;6125689;28;20262;-87
2021/12/23 12:59:31;;;;;;;29.17;19.60;;;;;;;-0.13;70.66;97649.84;6115239;28;20321;-88
2021/12/23 13:02:33;;;;;;;30.40;19.77;;;;;;;-0.21;71.52;97654.50;6114402;28;20245;-88
2021/12/23 13:05:39;;;;;;;30.07;19.60;;;;;;;-0.30;71.83;97653.06;6125100;28;20562;-88
2021/12/23 13:08:44;;;;;;;28.47;20.30;;;;;;;-0.38;72.02;97660.28;6131213;28;20304;-87
2021/12/23 13:12:06;;;;;;;29.10;19.53;;;;;;;-0.45;72.75;97654.50;6144623;28;20238;-87
2021/12/23 13:15:39;;;;;;;28.87;19.87;;;;;;;-0.46;72.65;97646.78;6130658;28;20354;-87
2021/12/23 13:19:22;;;;;;;29.17;19.77;;;;;;;-0.43;72.62;97655.28;6117430;28;20389;-87
2021/12/23 13:22:25;;;;;;;29.17;19.93;;;;;;;-0.48;72.80;97644.22;6130659;28;20714;-88
2021/12/23 13:25:27;;;;;;;27.93;18.63;;;;;;;-0.56;73.35;97642.81;6130468;28;20233;-88
2021/12/23 13:28:56;;;;;;;31.60;21.27;;;;;;;-0.69;73.44;97642.41;6107723;28;20239;-88
2021/12/23 13:32:01;;;;;;;32.23;19.33;;;;;;;-0.80;74.10;97636.81;6130571;28;20321;-87
2021/12/23 13:35:15;;;;;;;32.17;21.23;;;;;;;-0.85;74.21;97633.50;6114462;28;20259;-88
2021/12/23 13:38:39;;;;;;;27.83;19.43;;;;;;;-0.96;74.35;97623.53;6135744;28;20226;-87
2021/12/23 13:41:46;;;;;;;31.80;20.63;;;;;;;-1.13;74.30;97606.00;6115370;28;20246;-87
2021/12/23 13:44:51;;;;;;;29.63;21.20;;;;;;;-1.25;74.38;97621.97;6114351;28;20261;-88
2021/12/23 13:47:56;;;;;;;28.97;20.00;;;;;;;-1.30;74.70;97621.28;6118341;28;20238;-87
2021/12/23 13:50:59;;;;;;;31.73;19.63;;;;;;;-1.24;74.96;97604.69;6112813;28;20235;-88
2021/12/23 13:54:16;;;;;;;32.37;21.80;;;;;;;-1.24;74.56;97604.69;6119588;28;20238;-88
2021/12/23 13:57:21;;;;;;;31.17;20.50;;;;;;;-1.23;75.21;97591.69;6134724;28;20227;-88
2021/12/23 14:00:25;;;;;;;30.17;20.27;;;;;;;-1.24;75.02;97595.19;6134542;28;20578;-88
2021/12/23 14:03:27;;;;;;;34.53;21.60;;;;;;;-1.22;75.36;97597.72;6127929;28;20231;-88
2021/12/23 14:06:29;;;;;;;32.37;21.27;;;;;;;-1.22;75.47;97593.41;6102177;28;20226;-87
2021/12/23 14:09:38;;;;;;;30.47;19.10;;;;;;;-1.21;75.46;97589.91;6114388;28;20237;-87
2021/12/23 14:12:50;;;;;;;32.90;21.03;;;;;;;-1.23;75.48;97596.03;6112842;28;20842;-88
2021/12/23 14:15:52;;;;;;;29.73;20.13;;;;;;;-1.29;75.43;97585.88;6118709;28;20623;-87
2021/12/23 14:19:10;;;;;;;30.30;19.90;;;;;;;-1.35;76.12;97576.59;6134420;28;20242;-87
2021/12/23 14:25:34;;;;;;;31.53;20.93;;;;;;;-1.50;76.17;97572.78;6133042;28;20318;-88
2021/12/23 14:28:46;;;;;;;29.20;20.53;;;;;;;-1.59;76.51;97557.56;6118144;28;20251;-88
2021/12/23 14:31:49;;;;;;;32.03;21.37;;;;;;;-1.70;76.67;97562.28;6116861;28;20298;-90
2021/12/23 14:34:51;;;;;;;31.37;20.47;;;;;;;-1.76;76.98;97565.06;6095410;28;20330;-87
2021/12/23 14:38:03;;;;;;;27.10;19.57;;;;;;;-1.80;77.51;97557.47;6110256;28;20370;-87
2021/12/23 14:41:08;;;;;;;26.20;18.33;;;;;;;-1.86;77.50;97541.22;6119833;28;20227;-87
2021/12/23 14:44:10;;;;;;;28.00;18.73;;;;;;;-1.91;77.21;97530.22;6132439;28;20297;-87
2021/12/23 14:47:27;;;;;;;25.97;17.83;;;;;;;-1.97;77.75;97532.97;6133538;28;20734;-87
2021/12/23 14:50:38;;;;;;;27.37;17.17;;;;;;;-2.04;78.42;97541.00;6118289;28;20605;-88
2021/12/23 14:53:41;;;;;;;31.33;19.80;;;;;;;-2.13;78.26;97543.88;6134107;28;20317;-89
2021/12/23 14:56:47;;;;;;;26.73;17.73;;;;;;;-2.25;78.98;97538.22;6133785;28;20383;-87
2021/12/23 14:59:55;;;;;;;25.37;16.97;;;;;;;-2.32;78.84;97551.38;6111552;28;20239;-88
2021/12/23 15:03:09;;;;;;;30.20;19.90;;;;;;;-2.43;78.87;97551.72;6087251;29;20795;-88
2021/12/23 15:06:11;;;;;;;27.10;19.40;;;;;;;-2.56;79.38;97549.53;6128662;28;20301;-88
2021/12/23 15:09:22;;;;;;;26.43;19.20;;;;;;;-2.64;79.38;97536.88;6119473;28;20633;-87
2021/12/23 15:12:25;;;;;;;28.60;19.47;;;;;;;-2.74;79.79;97546.63;6121999;28;20292;-87
2021/12/23 15:15:30;;;;;;;28.43;18.03;;;;;;;-2.82;79.64;97552.91;6130994;28;20231;-88
2021/12/23 15:18:57;;;;;;;28.33;18.50;;;;;;;-2.93;79.74;97550.63;6125769;28;20322;-87
2021/12/23 15:22:14;;;;;;;24.87;16.33;;;;;;;-3.02;80.66;97559.50;6111780;28;20239;-87
2021/12/23 15:25:16;;;;;;;28.13;17.80;;;;;;;-3.07;80.31;97556.19;6104842;29;20368;-87
2021/12/23 15:28:17;;;;;;;25.20;17.60;;;;;;;-3.11;80.79;97548.59;6087770;28;20742;-87
2021/12/23 15:31:19;;;;;;;29.43;18.63;;;;;;;-3.16;80.98;97548.72;6110033;28;20716;-86